Time;durP1;ratioP1;P1;durP2;ratioP2;P2;SDS_P1;SDS_P2;PMS_P1;PMS_P2;Temp;Humidity;BMP_temperature;BMP_pressure;BME280_temperature;BME280_humidity;BME280_pressure;Samples;Min_cycle;Max_cycle;Signal;HPM_P1;HPM_P2
2021/01/03 00:01:57;;;;;;;5.35;3.63;;;;;;;7.00;64.04;100012.81;5044439;28;20141;-84
2021/01/03 00:04:24;;;;;;;9.27;4.32;;;;;;;6.85;63.91;100017.84;5013383;28;20038;-89
2021/01/03 00:06:54;;;;;;;9.52;4.22;;;;;;;6.94;64.14;100011.91;5028500;28;20045;-92
2021/01/03 00:09:23;;;;;;;4.68;3.97;;;;;;;6.69;65.17;100022.81;5036390;28;20046;-89
2021/01/03 00:11:52;;;;;;;8.95;4.00;;;;;;;6.99;64.30;100024.09;5031148;28;20049;-90
2021/01/03 00:14:20;;;;;;;7.20;4.40;;;;;;;7.03;63.91;100025.00;5036281;28;20048;-88
2021/01/03 00:16:51;;;;;;;8.55;3.90;;;;;;;6.82;64.23;100020.38;5032221;28;20049;-88
2021/01/03 00:19:20;;;;;;;9.48;4.30;;;;;;;6.50;65.51;100024.28;5051895;28;20052;-90
2021/01/03 00:21:50;;;;;;;5.95;4.20;;;;;;;6.99;64.32;100034.47;5026290;28;20113;-89
2021/01/03 00:24:19;;;;;;;4.97;3.72;;;;;;;7.00;64.20;100025.81;5014783;28;20407;-90
2021/01/03 00:26:46;;;;;;;5.45;3.47;;;;;;;6.65;65.40;100028.81;5025010;28;20056;-91
2021/01/03 00:29:18;;;;;;;4.40;3.28;;;;;;;7.06;64.06;100029.34;5034190;28;20045;-89
2021/01/03 00:31:47;;;;;;;6.47;4.15;;;;;;;6.75;65.15;100018.59;5022654;28;20069;-90
2021/01/03 00:34:15;;;;;;;4.95;3.42;;;;;;;6.86;64.40;100011.78;5023154;28;20102;-85
2021/01/03 00:36:42;;;;;;;7.97;4.30;;;;;;;6.75;64.95;100018.59;5038670;28;20049;-90
2021/01/03 00:39:10;;;;;;;5.13;3.70;;;;;;;6.66;65.24;100013.28;5023882;28;20041;-87
2021/01/03 00:41:37;;;;;;;5.18;3.72;;;;;;;6.68;64.58;100015.88;5047797;28;20044;-90
2021/01/03 00:44:05;;;;;;;8.68;3.35;;;;;;;6.75;65.08;100017.72;5021881;28;20044;-90
2021/01/03 00:46:33;;;;;;;5.55;3.78;;;;;;;7.26;63.71;100017.44;5023671;28;20082;-90
2021/01/03 00:49:07;;;;;;;7.43;3.63;;;;;;;6.63;65.30;100018.41;5023984;28;20049;-87
2021/01/03 00:51:35;;;;;;;9.05;3.60;;;;;;;6.98;64.61;100018.88;5029209;28;20469;-89
2021/01/03 00:54:05;;;;;;;9.68;4.05;;;;;;;6.57;65.28;100026.97;5042381;28;20128;-86
2021/01/03 00:56:31;;;;;;;10.27;4.70;;;;;;;7.01;64.35;100024.97;5040301;28;20565;-90
2021/01/03 00:58:58;;;;;;;8.48;4.70;;;;;;;6.96;64.43;100025.75;5044092;28;20127;-88
2021/01/03 01:01:26;;;;;;;10.75;4.60;;;;;;;6.47;66.62;100035.50;5015079;28;20040;-89
2021/01/03 01:03:53;;;;;;;8.63;5.20;;;;;;;6.87;64.74;100025.63;5012498;28;20408;-88
2021/01/03 01:06:20;;;;;;;6.85;4.60;;;;;;;6.90;65.19;100025.69;5020301;28;20522;-89
2021/01/03 01:08:47;;;;;;;6.43;4.57;;;;;;;6.73;65.25;100022.00;5025303;28;20045;-89
2021/01/03 01:11:14;;;;;;;7.00;4.80;;;;;;;6.82;65.23;100025.59;5009320;28;20045;-89
2021/01/03 01:13:41;;;;;;;5.90;4.60;;;;;;;7.12;64.73;100019.03;5013271;28;20049;-88
2021/01/03 01:16:09;;;;;;;8.35;4.43;;;;;;;7.15;64.19;100024.25;5019983;28;20060;-84
2021/01/03 01:18:36;;;;;;;4.75;4.10;;;;;;;6.91;64.71;100017.91;5020962;28;20125;-88
2021/01/03 01:21:04;;;;;;;4.78;3.70;;;;;;;7.01;64.46;100021.50;5024499;28;20106;-88
2021/01/03 01:23:31;;;;;;;6.75;3.90;;;;;;;7.24;63.72;100013.97;5004141;28;20347;-88
2021/01/03 01:25:59;;;;;;;4.95;3.70;;;;;;;7.19;63.95;100013.94;5006375;28;20050;-87
2021/01/03 01:28:27;;;;;;;6.60;3.30;;;;;;;6.23;66.47;100016.09;5035105;28;20057;-85
2021/01/03 01:30:54;;;;;;;5.90;3.33;;;;;;;6.78;65.25;100013.41;5004970;28;20088;-88
2021/01/03 01:33:20;;;;;;;10.68;3.42;;;;;;;6.69;65.30;100009.84;5021616;28;20037;-88
2021/01/03 01:35:47;;;;;;;5.65;3.10;;;;;;;6.80;64.85;100010.84;5024213;28;20046;-89
2021/01/03 01:38:14;;;;;;;5.18;2.83;;;;;;;6.74;65.00;100013.34;5021240;28;20148;-88
2021/01/03 01:40:42;;;;;;;3.47;3.15;;;;;;;6.99;64.27;100015.41;5002486;28;20073;-86
2021/01/03 01:43:13;;;;;;;7.15;2.97;;;;;;;6.23;66.95;100017.00;5025626;28;20114;-85
2021/01/03 01:45:44;;;;;;;5.00;2.97;;;;;;;6.78;65.45;100015.13;5028895;28;20081;-86
2021/01/03 01:48:18;;;;;;;8.73;3.38;;;;;;;6.87;64.93;100025.63;5025284;28;20073;-86
2021/01/03 01:50:55;;;;;;;6.65;2.83;;;;;;;7.05;64.41;100025.84;5029244;28;20090;-88
2021/01/03 01:53:32;;;;;;;4.75;2.60;;;;;;;6.79;64.73;100016.88;5008774;28;20056;-81
2021/01/03 01:56:08;;;;;;;3.60;2.65;;;;;;;6.45;66.11;100032.00;5040496;28;20055;-88
2021/01/03 01:59:01;;;;;;;5.78;2.38;;;;;;;6.90;64.87;100017.91;5036775;28;20110;-89
2021/01/03 02:01:38;;;;;;;9.20;3.05;;;;;;;6.48;66.36;100036.34;5029982;28;20057;-86
2021/01/03 02:04:19;;;;;;;3.03;2.72;;;;;;;6.84;65.00;100026.50;5040236;28;20053;-88
2021/01/03 02:06:55;;;;;;;6.07;2.07;;;;;;;6.59;65.65;100029.59;5043608;28;20083;-89
2021/01/03 02:09:39;;;;;;;4.63;2.20;;;;;;;6.92;64.71;100032.66;5056801;28;20053;-83
2021/01/03 02:12:14;;;;;;;12.90;3.30;;;;;;;6.87;65.03;100026.50;5031111;28;20115;-89
2021/01/03 02:14:42;;;;;;;5.70;2.13;;;;;;;6.75;65.50;100033.28;5046885;28;20349;-87
2021/01/03 02:17:09;;;;;;;5.65;2.70;;;;;;;6.98;64.56;100032.72;5030975;28;20041;-88
2021/01/03 02:19:36;;;;;;;4.60;2.95;;;;;;;6.51;66.01;100018.25;5060895;28;20056;-89
2021/01/03 02:22:14;;;;;;;6.28;3.05;;;;;;;6.80;65.35;100027.31;5050521;28;20044;-89
2021/01/03 02:25:05;;;;;;;8.50;3.20;;;;;;;6.89;65.06;100026.53;5047465;28;20530;-89
2021/01/03 02:28:10;;;;;;;5.88;2.88;;;;;;;7.14;64.42;100030.31;5042660;28;20738;-88
2021/01/03 02:30:38;;;;;;;7.68;2.80;;;;;;;6.61;65.73;100037.41;5051859;28;20204;-89
2021/01/03 02:33:23;;;;;;;5.28;3.13;;;;;;;6.71;65.65;100039.28;5028502;28;20049;-86
2021/01/03 02:35:58;;;;;;;3.97;2.75;;;;;;;6.65;65.73;100041.78;5039624;28;20451;-89
2021/01/03 02:38:29;;;;;;;4.38;2.65;;;;;;;6.29;67.24;100045.59;5041695;28;20049;-89
2021/01/03 02:40:55;;;;;;;6.90;2.65;;;;;;;6.55;66.44;100049.47;5047657;28;20117;-85
2021/01/03 02:43:22;;;;;;;7.22;2.72;;;;;;;6.92;64.94;100030.03;5047380;28;20079;-84
2021/01/03 02:45:50;;;;;;;4.55;2.35;;;;;;;7.09;64.50;100040.66;5056428;28;20580;-85
2021/01/03 02:48:20;;;;;;;3.85;2.53;;;;;;;6.63;65.77;100033.97;5042422;28;20555;-87
2021/01/03 02:50:47;;;;;;;6.63;2.65;;;;;;;6.76;65.26;100041.06;5044753;28;20055;-85
2021/01/03 02:53:14;;;;;;;6.88;2.30;;;;;;;6.95;64.87;100039.63;5026341;28;20052;-86
2021/01/03 02:55:41;;;;;;;4.60;2.00;;;;;;;7.05;64.32;100041.44;5027999;28;20045;-86
2021/01/03 02:58:08;;;;;;;6.38;2.58;;;;;;;6.61;65.21;100033.09;5047348;28;20389;-87
2021/01/03 03:00:37;;;;;;;3.78;2.08;;;;;;;6.32;66.70;100029.22;5044816;28;20068;-86
2021/01/03 03:03:05;;;;;;;4.30;1.90;;;;;;;6.61;66.02;100022.72;5058370;28;20388;-88
2021/01/03 03:05:32;;;;;;;5.63;1.98;;;;;;;6.50;66.05;100027.75;5038319;28;20056;-88
2021/01/03 03:07:58;;;;;;;5.72;2.15;;;;;;;7.21;64.26;100032.13;5026357;28;20049;-89
2021/01/03 03:10:26;;;;;;;4.57;2.03;;;;;;;6.96;64.62;100030.94;5044921;28;20055;-89
2021/01/03 03:12:56;;;;;;;3.95;1.85;;;;;;;6.75;64.80;100023.78;5034676;28;20326;-90
2021/01/03 03:15:25;;;;;;;2.83;1.60;;;;;;;6.92;64.42;100034.38;5045555;28;20049;-83
2021/01/03 03:17:54;;;;;;;5.95;1.90;;;;;;;6.58;65.88;100035.63;5031980;28;20459;-88
2021/01/03 03:20:22;;;;;;;5.82;2.15;;;;;;;6.73;65.79;100035.84;5043954;28;20081;-86
2021/01/03 03:22:49;;;;;;;4.07;2.30;;;;;;;6.52;66.68;100035.56;5046124;28;20132;-85
2021/01/03 03:25:18;;;;;;;6.72;2.45;;;;;;;6.18;67.49;100046.28;5025470;28;20068;-89
2021/01/03 03:27:44;;;;;;;9.73;2.25;;;;;;;6.49;66.40;100040.69;5040441;28;20053;-89
2021/01/03 03:30:14;;;;;;;6.95;2.72;;;;;;;6.26;67.94;100039.50;5026104;28;20122;-89
2021/01/03 03:32:41;;;;;;;5.65;2.72;;;;;;;6.55;66.61;100033.00;5035336;28;20055;-90
2021/01/03 03:35:09;;;;;;;6.35;2.88;;;;;;;6.14;67.82;100038.44;5031303;28;20051;-85
2021/01/03 03:37:39;;;;;;;5.30;2.70;;;;;;;6.80;65.87;100034.22;5040286;28;20037;-90
2021/01/03 03:40:06;;;;;;;3.30;2.90;;;;;;;6.72;65.69;100034.09;5047891;28;20083;-85
2021/01/03 03:42:33;;;;;;;3.10;2.42;;;;;;;6.44;66.67;100021.59;5043331;28;20484;-90
2021/01/03 03:44:59;;;;;;;7.25;2.65;;;;;;;6.16;67.24;100028.09;5047943;28;20502;-89
2021/01/03 03:47:27;;;;;;;6.47;2.97;;;;;;;6.12;67.37;100032.38;5041549;28;20045;-87
2021/01/03 03:49:56;;;;;;;7.50;3.00;;;;;;;6.12;68.29;100036.69;5050026;28;20119;-88
2021/01/03 03:52:23;;;;;;;7.80;3.67;;;;;;;5.79;68.94;100033.50;5031547;28;20048;-89
2021/01/03 03:54:49;;;;;;;8.10;3.30;;;;;;;6.23;67.95;100029.09;5047224;28;20045;-88
2021/01/03 03:57:19;;;;;;;10.52;3.85;;;;;;;6.28;67.97;100033.50;5042603;28;20135;-90
2021/01/03 03:59:46;;;;;;;8.13;3.88;;;;;;;6.21;67.90;100035.97;5047642;28;20425;-89
2021/01/03 04:02:12;;;;;;;7.97;3.60;;;;;;;6.18;68.49;100041.09;5035989;28;20690;-86
2021/01/03 04:04:39;;;;;;;8.20;3.97;;;;;;;6.31;68.37;100033.53;5038806;28;20084;-88
2021/01/03 04:07:05;;;;;;;5.18;3.83;;;;;;;6.73;66.97;100032.38;5057239;28;20107;-89
2021/01/03 04:09:34;;;;;;;7.22;4.03;;;;;;;6.60;67.23;100025.28;5041846;28;20075;-89
2021/01/03 04:12:00;;;;;;;15.07;4.15;;;;;;;6.65;67.33;100031.41;5029571;28;20045;-89
2021/01/03 04:14:27;;;;;;;7.85;4.15;;;;;;;6.64;67.69;100027.94;5040116;28;20053;-87
2021/01/03 04:16:57;;;;;;;4.80;3.75;;;;;;;6.24;68.42;100036.00;5028880;28;20136;-87
2021/01/03 04:19:26;;;;;;;8.43;3.95;;;;;;;6.45;67.65;100032.00;5039356;28;20573;-87
2021/01/03 04:21:59;;;;;;;11.50;4.05;;;;;;;6.53;67.81;100038.16;5040819;28;20049;-85
2021/01/03 04:24:27;;;;;;;10.13;3.65;;;;;;;6.50;67.84;100032.06;5035957;28;20055;-89
2021/01/03 04:26:57;;;;;;;7.05;3.00;;;;;;;6.73;67.26;100020.28;5028399;28;20037;-90
2021/01/03 04:29:24;;;;;;;5.70;3.75;;;;;;;6.79;66.22;100033.34;5044968;28;20098;-89
2021/01/03 04:31:56;;;;;;;9.23;4.13;;;;;;;6.83;66.94;100029.94;5043812;28;20488;-90
2021/01/03 04:34:24;;;;;;;6.15;3.85;;;;;;;6.59;67.72;100039.97;5026636;28;20393;-88
2021/01/03 04:36:52;;;;;;;6.20;3.40;;;;;;;6.96;66.50;100034.41;5028421;28;20049;-87
2021/01/03 04:39:21;;;;;;;9.32;4.03;;;;;;;6.98;66.14;100032.72;5031920;28;20040;-89
2021/01/03 04:42:00;;;;;;;11.35;4.10;;;;;;;6.50;67.32;100039.84;5043771;28;20555;-89
2021/01/03 04:44:45;;;;;;;5.05;3.30;;;;;;;7.12;65.37;100029.41;5037282;28;20075;-88
2021/01/03 04:47:14;;;;;;;5.57;3.40;;;;;;;6.76;66.60;100037.63;5040235;28;20072;-88
2021/01/03 04:49:51;;;;;;;8.35;3.10;;;;;;;6.73;66.64;100033.25;5045004;28;20156;-87
2021/01/03 04:52:32;;;;;;;9.15;3.13;;;;;;;6.72;66.29;100038.41;5035208;28;20069;-88
2021/01/03 04:55:20;;;;;;;6.40;3.05;;;;;;;6.39;67.64;100036.22;5044390;28;20048;-88
2021/01/03 04:57:59;;;;;;;4.55;3.10;;;;;;;7.29;65.06;100043.50;5025910;28;20059;-88
2021/01/03 05:00:41;;;;;;;6.43;2.60;;;;;;;6.83;66.34;100037.72;5034706;28;20045;-88
2021/01/03 05:03:30;;;;;;;4.50;2.78;;;;;;;6.82;66.59;100032.50;5042181;28;20103;-82
2021/01/03 05:06:07;;;;;;;9.00;3.25;;;;;;;7.22;65.22;100036.47;5037917;28;20101;-89
2021/01/03 05:08:40;;;;;;;3.45;2.50;;;;;;;6.92;65.95;100035.25;5040564;28;20053;-88
2021/01/03 05:11:14;;;;;;;5.55;2.80;;;;;;;6.74;66.58;100037.59;5040691;28;20166;-87
2021/01/03 05:14:06;;;;;;;7.13;2.67;;;;;;;7.04;65.81;100037.13;5044674;28;20057;-88
2021/01/03 05:16:33;;;;;;;;;;;;;;;7.37;64.42;100044.44;5020534;28;20053;-88
2021/01/03 05:18:59;;;;;;;6.40;2.60;;;;;;;7.10;65.14;100041.53;5043021;28;20329;-88
2021/01/03 05:21:48;;;;;;;5.50;2.58;;;;;;;7.17;65.20;100044.22;5037281;28;20063;-88
2021/01/03 05:24:14;;;;;;;5.53;2.38;;;;;;;7.28;64.72;100044.34;5042332;28;20092;-89
2021/01/03 05:26:42;;;;;;;6.82;2.80;;;;;;;7.79;63.07;100050.06;5025905;28;20091;-87
2021/01/03 05:29:11;;;;;;;4.50;2.85;;;;;;;7.71;63.38;100048.25;5045682;28;20139;-86
2021/01/03 05:31:38;;;;;;;5.45;2.42;;;;;;;7.51;63.63;100045.47;5038683;28;20042;-88
2021/01/03 05:34:08;;;;;;;5.93;2.90;;;;;;;6.73;66.16;100058.34;5045954;28;20047;-88
2021/01/03 05:36:44;;;;;;;3.75;2.88;;;;;;;6.91;66.23;100046.47;5038310;28;20049;-88
2021/01/03 05:39:21;;;;;;;4.55;2.67;;;;;;;6.71;67.15;100053.16;5040583;28;20049;-88
2021/01/03 05:42:01;;;;;;;9.25;3.47;;;;;;;6.98;65.60;100061.31;5056622;28;20048;-89
2021/01/03 05:44:32;;;;;;;6.03;3.30;;;;;;;6.69;67.21;100053.97;5025705;28;20049;-89
2021/01/03 05:47:30;;;;;;;10.40;3.30;;;;;;;7.02;65.87;100054.41;5037811;28;20053;-89
2021/01/03 05:50:34;;;;;;;4.00;3.00;;;;;;;6.46;66.94;100057.13;5048334;28;20079;-87
2021/01/03 05:53:19;;;;;;;4.13;3.00;;;;;;;6.94;66.09;100056.91;4975633;28;20076;-86
2021/01/03 05:55:55;;;;;;;10.60;3.78;;;;;;;6.81;66.56;100067.97;4983962;28;20050;-89
2021/01/03 05:58:29;;;;;;;5.20;3.75;;;;;;;6.84;66.49;100068.03;4975725;28;20064;-88
2021/01/03 06:01:13;;;;;;;4.70;3.58;;;;;;;6.73;66.20;100068.72;4966229;28;20073;-89
2021/01/03 06:03:40;;;;;;;6.63;4.00;;;;;;;6.74;67.06;100054.91;4977811;28;20042;-88
2021/01/03 06:06:24;;;;;;;5.45;4.00;;;;;;;6.98;65.83;100065.63;4954078;28;20054;-88
2021/01/03 06:08:58;;;;;;;7.00;3.75;;;;;;;6.57;67.19;100059.84;4962902;28;20061;-89
2021/01/03 06:11:25;;;;;;;5.03;3.78;;;;;;;6.84;66.55;100064.56;4963652;28;20383;-88
2021/01/03 06:14:00;;;;;;;6.50;3.45;;;;;;;7.28;65.15;100055.59;4966295;28;20051;-88
2021/01/03 06:16:30;;;;;;;7.95;3.53;;;;;;;7.14;65.66;100071.88;4947905;28;20187;-88
2021/01/03 06:19:16;;;;;;;3.95;3.47;;;;;;;6.62;66.76;100067.72;4960646;28;20042;-88
2021/01/03 06:21:44;;;;;;;7.38;3.30;;;;;;;6.84;66.33;100072.34;4968776;28;20120;-88
2021/01/03 06:24:29;;;;;;;5.43;2.90;;;;;;;6.80;66.92;100075.78;4952123;28;20048;-88
2021/01/03 06:27:05;;;;;;;5.45;3.13;;;;;;;6.64;66.83;100077.28;4967578;28;20169;-86
2021/01/03 06:29:39;;;;;;;5.93;3.20;;;;;;;6.88;66.03;100072.41;5029371;28;20113;-88
2021/01/03 06:32:26;;;;;;;5.88;3.22;;;;;;;7.04;65.78;100072.63;5045136;28;20045;-88
2021/01/03 06:34:58;;;;;;;8.18;3.38;;;;;;;7.06;65.92;100076.97;4992283;28;20041;-86
2021/01/03 06:37:33;;;;;;;4.38;3.22;;;;;;;6.86;66.27;100076.69;5027959;28;20053;-88
2021/01/03 06:40:08;;;;;;;6.88;3.35;;;;;;;6.82;66.23;100081.84;5007896;28;20053;-87
2021/01/03 06:42:44;;;;;;;6.05;3.10;;;;;;;6.94;66.15;100087.22;5045273;28;20120;-88
2021/01/03 06:45:23;;;;;;;5.80;2.97;;;;;;;6.71;67.22;100084.31;5044871;28;20041;-87
2021/01/03 06:48:14;;;;;;;5.20;2.90;;;;;;;6.52;67.09;100085.72;5049178;28;20118;-86
2021/01/03 06:51:06;;;;;;;3.92;2.75;;;;;;;6.86;66.68;100087.09;5024476;28;20080;-86
2021/01/03 06:53:36;;;;;;;;;;;;;;;6.81;66.42;100082.72;5006031;28;20078;-88
2021/01/03 06:56:21;;;;;;;7.20;3.10;;;;;;;6.97;66.29;100080.31;5025751;28;19929;-86
2021/01/03 06:59:25;;;;;;;6.38;2.63;;;;;;;7.06;65.68;100089.09;5029240;28;20045;-84
2021/01/03 07:01:52;;;;;;;7.07;2.88;;;;;;;6.96;66.06;100093.28;5061743;28;20044;-85
2021/01/03 07:04:32;;;;;;;6.10;2.80;;;;;;;6.62;66.70;100094.53;5043030;28;20041;-88
2021/01/03 07:07:00;;;;;;;7.05;3.13;;;;;;;6.13;68.61;100092.91;5052655;28;20045;-90
2021/01/03 07:09:28;;;;;;;8.05;3.35;;;;;;;6.49;68.07;100095.19;5041979;28;20212;-88
2021/01/03 07:11:57;;;;;;;9.13;2.78;;;;;;;6.80;66.78;100094.81;5047340;28;20063;-88
2021/01/03 07:14:24;;;;;;;5.45;2.90;;;;;;;6.86;66.58;100094.88;5042567;28;20046;-82
2021/01/03 07:17:03;;;;;;;6.47;2.88;;;;;;;6.48;67.31;100099.53;5044468;28;20052;-88
2021/01/03 07:19:31;;;;;;;5.55;2.63;;;;;;;6.97;65.91;100106.31;5030175;28;20104;-90
2021/01/03 07:22:14;;;;;;;3.10;2.75;;;;;;;6.56;67.36;100108.31;5043588;28;20053;-88
2021/01/03 07:24:44;;;;;;;6.90;2.50;;;;;;;6.62;67.63;100102.31;5041261;28;20045;-87
2021/01/03 07:27:29;;;;;;;5.93;2.88;;;;;;;6.92;66.42;100113.16;5056748;28;20492;-86
2021/01/03 07:29:56;;;;;;;5.13;2.55;;;;;;;6.97;65.78;100111.50;5045507;28;20045;-85
2021/01/03 07:32:45;;;;;;;6.07;2.92;;;;;;;6.97;65.98;100110.63;5042322;28;20045;-85
2021/01/03 07:35:20;;;;;;;5.88;2.75;;;;;;;7.27;65.20;100100.63;4965460;28;20120;-88
2021/01/03 07:37:51;;;;;;;4.50;2.60;;;;;;;6.42;66.98;100114.16;4982999;28;20046;-86
2021/01/03 07:40:21;;;;;;;6.57;3.15;;;;;;;7.11;65.17;100113.41;4974581;28;20050;-87
2021/01/03 07:42:47;;;;;;;5.78;3.00;;;;;;;6.67;66.34;100117.97;4944551;28;20039;-87
2021/01/03 07:45:14;;;;;;;3.33;2.40;;;;;;;6.98;65.94;100121.03;4954697;28;20051;-89
2021/01/03 07:47:52;;;;;;;5.60;3.60;;;;;;;6.93;65.26;100111.44;4982180;28;20049;-89
2021/01/03 07:50:30;;;;;;;5.25;3.20;;;;;;;6.93;65.63;100116.63;4965095;28;20051;-87
2021/01/03 07:53:14;;;;;;;7.65;3.25;;;;;;;6.98;65.95;100108.06;4977697;28;20050;-87
2021/01/03 07:55:42;;;;;;;6.75;3.72;;;;;;;6.66;66.25;100114.53;4977834;28;20061;-87
2021/01/03 07:58:14;;;;;;;4.85;3.55;;;;;;;6.33;68.03;100116.59;4979777;28;20046;-86
2021/01/03 08:00:43;;;;;;;5.68;3.20;;;;;;;7.15;65.05;100125.56;4981362;28;20042;-87
2021/01/03 08:03:12;;;;;;;5.00;3.72;;;;;;;6.70;66.17;100131.88;4958557;28;20089;-87
2021/01/03 08:05:41;;;;;;;8.32;3.47;;;;;;;7.11;65.58;100122.06;4960081;28;20430;-87
2021/01/03 08:08:19;;;;;;;5.72;3.17;;;;;;;6.50;67.17;100134.16;4956451;28;20043;-81
2021/01/03 08:10:49;;;;;;;5.57;3.40;;;;;;;6.98;65.86;100138.34;4979789;28;20129;-82
2021/01/03 08:13:26;;;;;;;6.22;3.40;;;;;;;6.76;66.26;100136.31;5014519;28;20054;-88
2021/01/03 08:15:58;;;;;;;7.72;3.42;;;;;;;6.70;66.67;100139.66;5021385;28;20145;-82
2021/01/03 08:18:28;;;;;;;6.07;3.63;;;;;;;6.79;66.61;100146.72;5037697;28;20056;-82
2021/01/03 08:21:05;;;;;;;4.75;3.22;;;;;;;6.83;66.21;100145.91;5027704;28;20053;-89
2021/01/03 08:23:34;;;;;;;6.22;3.55;;;;;;;7.08;65.31;100145.41;5038941;28;20396;-87
2021/01/03 08:26:18;;;;;;;4.60;3.75;;;;;;;6.89;66.24;100146.00;5044423;28;20348;-86
2021/01/03 08:29:00;;;;;;;3.47;3.00;;;;;;;6.90;65.57;100139.97;5042655;28;20099;-88
2021/01/03 08:31:33;;;;;;;5.68;4.07;;;;;;;6.72;66.32;100144.88;5045174;28;21285;-87
2021/01/03 08:34:03;;;;;;;5.35;3.30;;;;;;;7.22;64.85;100149.06;5041251;28;20037;-89
2021/01/03 08:36:36;;;;;;;4.28;3.30;;;;;;;6.79;65.88;100150.19;5025226;28;20045;-88
2021/01/03 08:39:09;;;;;;;4.72;4.22;;;;;;;7.00;65.42;100162.63;5041843;28;20486;-86
2021/01/03 08:41:59;;;;;;;10.43;4.03;;;;;;;6.85;65.77;100167.59;5043495;28;20043;-89
2021/01/03 08:44:34;;;;;;;5.47;4.03;;;;;;;6.73;66.04;100170.00;5020282;28;20063;-88
2021/01/03 08:47:09;;;;;;;7.70;4.60;;;;;;;7.28;64.08;100179.47;4998709;28;20046;-89
2021/01/03 08:49:37;;;;;;;6.22;4.97;;;;;;;6.94;65.28;100180.72;5006849;28;20045;-88
2021/01/03 08:52:16;;;;;;;5.55;4.32;;;;;;;6.67;65.97;100181.16;5017612;28;20045;-87
2021/01/03 08:55:08;;;;;;;7.15;5.22;;;;;;;6.25;67.17;100185.63;5021543;28;20044;-88
2021/01/03 08:57:38;;;;;;;6.50;4.85;;;;;;;6.49;66.81;100186.03;5022423;28;20063;-87
2021/01/03 09:00:07;;;;;;;5.30;4.28;;;;;;;6.66;66.33;100188.94;5041042;28;20053;-89
2021/01/03 09:02:35;;;;;;;6.25;4.07;;;;;;;6.62;66.30;100193.19;5029975;28;20048;-87
2021/01/03 09:05:03;;;;;;;5.20;4.03;;;;;;;6.36;67.64;100192.75;5041335;28;20053;-87
2021/01/03 09:07:36;;;;;;;5.97;3.97;;;;;;;6.58;66.35;100199.16;5042082;28;20052;-89
2021/01/03 09:10:06;;;;;;;6.85;4.15;;;;;;;6.75;66.25;100192.56;5041105;28;20080;-89
2021/01/03 09:12:37;;;;;;;5.28;4.13;;;;;;;6.85;65.76;100197.03;5042837;28;20065;-87
2021/01/03 09:15:32;;;;;;;6.05;4.90;;;;;;;7.27;64.53;100196.78;5039147;28;20037;-87
2021/01/03 09:18:46;;;;;;;4.57;3.78;;;;;;;7.31;63.90;100203.75;5034282;28;20483;-88
2021/01/03 09:21:13;;;;;;;4.60;3.75;;;;;;;7.45;63.39;100204.81;4963471;28;20129;-86
2021/01/03 09:23:42;;;;;;;4.35;3.90;;;;;;;7.01;64.58;100209.38;4990493;28;20375;-89
2021/01/03 09:26:11;;;;;;;5.32;4.13;;;;;;;6.94;65.41;100204.97;4963959;28;20042;-83
2021/01/03 09:28:42;;;;;;;5.28;4.45;;;;;;;6.82;65.14;100209.06;4989574;28;20046;-87
2021/01/03 09:31:29;;;;;;;4.45;4.03;;;;;;;6.86;65.94;100223.84;4978923;28;20042;-84
2021/01/03 09:34:19;;;;;;;8.13;3.90;;;;;;;6.96;64.78;100225.75;4984610;28;20497;-88
2021/01/03 09:37:04;;;;;;;6.75;4.03;;;;;;;6.91;65.57;100219.59;4981560;28;20510;-88
2021/01/03 09:40:08;;;;;;;4.90;4.40;;;;;;;7.33;63.68;100219.38;4982057;28;20441;-88
2021/01/03 09:42:45;;;;;;;5.00;4.35;;;;;;;7.41;63.74;100233.34;4980416;28;20151;-89
2021/01/03 09:45:29;;;;;;;4.70;4.25;;;;;;;7.31;63.22;100229.75;4966092;28;20469;-86
2021/01/03 09:47:57;;;;;;;4.85;4.03;;;;;;;7.50;62.95;100237.81;4983471;28;20042;-89
2021/01/03 09:50:39;;;;;;;5.75;4.50;;;;;;;7.08;63.74;100233.75;4978067;28;20133;-87
2021/01/03 09:53:31;;;;;;;4.57;4.18;;;;;;;7.11;63.36;100233.78;4973695;28;20047;-89
2021/01/03 09:56:29;;;;;;;5.55;3.80;;;;;;;6.89;64.27;100242.97;4979950;28;20087;-89
2021/01/03 09:58:57;;;;;;;4.72;3.90;;;;;;;7.03;63.71;100253.59;5017199;28;20060;-92
2021/01/03 10:01:33;;;;;;;7.38;4.88;;;;;;;7.27;64.01;100253.06;5044446;28;20098;-89
2021/01/03 10:04:27;;;;;;;6.40;4.15;;;;;;;6.92;64.31;100256.00;5049693;28;20063;-90
2021/01/03 10:07:15;;;;;;;6.82;4.47;;;;;;;6.85;65.68;100255.91;5032628;28;20540;-90
2021/01/03 10:09:52;;;;;;;4.65;4.03;;;;;;;7.33;64.33;100261.84;5026688;28;20838;-84
2021/01/03 10:12:30;;;;;;;4.32;3.38;;;;;;;7.66;63.54;100266.63;5030300;28;20455;-87
2021/01/03 10:15:05;;;;;;;3.63;3.28;;;;;;;7.55;63.73;100263.00;5051762;28;20155;-87
2021/01/03 10:17:32;;;;;;;5.40;3.65;;;;;;;7.87;62.75;100260.81;5038190;28;20057;-88
2021/01/03 10:20:03;;;;;;;6.35;3.05;;;;;;;7.39;63.64;100267.13;5051610;28;20037;-89
2021/01/03 10:22:50;;;;;;;3.38;2.63;;;;;;;7.85;62.38;100271.22;5026747;28;20140;-84
2021/01/03 10:25:18;;;;;;;4.00;2.78;;;;;;;7.70;62.94;100272.75;5040354;28;20147;-89
2021/01/03 10:28:04;;;;;;;5.60;3.25;;;;;;;7.69;62.33;100264.06;5028047;28;20401;-90
2021/01/03 10:30:32;;;;;;;3.83;2.95;;;;;;;7.93;61.53;100262.63;5057456;28;20053;-87
2021/01/03 10:32:59;;;;;;;4.47;2.60;;;;;;;7.75;61.99;100279.75;5047695;28;20042;-88
2021/01/03 10:35:28;;;;;;;6.35;2.47;;;;;;;7.53;61.23;100272.50;5049947;28;20072;-88
2021/01/03 10:37:56;;;;;;;2.75;2.30;;;;;;;7.93;61.09;100270.44;5020452;28;20049;-89
2021/01/03 10:40:23;;;;;;;3.63;2.45;;;;;;;7.86;60.47;100280.75;5054206;28;20041;-87
2021/01/03 10:42:50;;;;;;;3.35;2.70;;;;;;;7.68;61.40;100279.66;5050362;28;20546;-88
2021/01/03 10:45:19;;;;;;;4.35;2.65;;;;;;;7.96;60.59;100270.50;5050694;28;20045;-86
2021/01/03 10:47:48;;;;;;;4.80;3.33;;;;;;;7.92;60.38;100266.97;5044663;28;20041;-91
2021/01/03 10:50:18;;;;;;;2.95;2.75;;;;;;;7.69;61.49;100281.41;5049871;28;20497;-89
2021/01/03 10:52:45;;;;;;;2.70;2.50;;;;;;;7.96;60.38;100271.34;5053367;28;20056;-90
2021/01/03 10:55:14;;;;;;;5.43;2.17;;;;;;;7.50;61.66;100266.41;5049054;28;20674;-87
2021/01/03 10:57:41;;;;;;;5.05;2.70;;;;;;;8.04;60.27;100267.13;5049690;28;20486;-82
2021/01/03 11:00:11;;;;;;;6.28;3.05;;;;;;;8.05;60.31;100266.28;5035692;28;20265;-88
2021/01/03 11:02:38;;;;;;;5.03;2.92;;;;;;;8.31;59.71;100263.97;5017826;28;20049;-90
2021/01/03 11:05:07;;;;;;;3.47;2.80;;;;;;;7.88;61.29;100249.56;5063149;28;20049;-87
2021/01/03 11:07:34;;;;;;;3.40;3.10;;;;;;;8.17;59.57;100257.72;5047119;28;20052;-80
2021/01/03 11:10:07;;;;;;;3.28;2.83;;;;;;;8.05;60.39;100253.25;5042446;28;20436;-86
2021/01/03 11:12:33;;;;;;;5.50;3.45;;;;;;;8.04;61.27;100256.72;5047756;28;20124;-88
2021/01/03 11:15:01;;;;;;;5.18;3.22;;;;;;;8.92;59.73;100264.59;5044664;28;20434;-81
2021/01/03 11:17:28;;;;;;;3.13;2.83;;;;;;;9.51;57.96;100262.38;5042206;28;20175;-85
2021/01/03 11:19:54;;;;;;;2.65;2.45;;;;;;;9.15;57.62;100268.22;5027076;28;20060;-84
2021/01/03 11:22:21;;;;;;;2.72;2.42;;;;;;;8.84;58.25;100261.91;5041468;28;20059;-85
2021/01/03 11:24:48;;;;;;;3.35;3.08;;;;;;;8.18;60.71;100257.75;5045361;28;20053;-89
2021/01/03 11:27:20;;;;;;;5.05;4.15;;;;;;;8.58;59.16;100260.81;5060008;28;20049;-85
2021/01/03 11:29:51;;;;;;;6.95;4.20;;;;;;;8.46;60.38;100261.53;5008334;28;20049;-87
2021/01/03 11:32:25;;;;;;;7.35;4.57;;;;;;;9.00;59.22;100255.09;5033831;28;20049;-87
2021/01/03 11:34:53;;;;;;;4.68;4.28;;;;;;;8.72;59.83;100253.97;4998158;28;20052;-88
2021/01/03 11:37:27;;;;;;;6.90;4.88;;;;;;;8.47;61.20;100254.59;5018930;28;20125;-82
2021/01/03 11:39:54;;;;;;;5.43;4.88;;;;;;;8.85;59.61;100257.56;5030610;28;20672;-87
2021/01/03 11:42:31;;;;;;;4.70;4.30;;;;;;;9.07;59.14;100257.72;5043263;28;20045;-85
2021/01/03 11:44:58;;;;;;;4.57;4.15;;;;;;;8.89;59.32;100257.59;5021655;28;20575;-81
2021/01/03 11:47:28;;;;;;;4.40;3.80;;;;;;;8.53;60.12;100260.75;5022017;28;20077;-85
2021/01/03 11:49:55;;;;;;;5.38;4.70;;;;;;;8.29;61.40;100261.38;5047662;28;20045;-86
2021/01/03 11:52:29;;;;;;;4.78;4.32;;;;;;;8.63;60.56;100259.97;5023629;28;20037;-86
2021/01/03 11:54:57;;;;;;;5.35;4.22;;;;;;;8.83;59.93;100267.06;5045423;28;20586;-86
2021/01/03 11:57:24;;;;;;;6.75;4.10;;;;;;;8.68;60.75;100258.28;5042214;28;20545;-87
2021/01/03 11:59:50;;;;;;;12.25;4.57;;;;;;;8.12;62.98;100257.66;5048339;28;20064;-92
2021/01/03 12:02:20;;;;;;;6.25;4.82;;;;;;;8.66;61.94;100259.13;5041077;28;20055;-88